sensor_id;sensor_type;location;lat;lon;timestamp;P1;durP1;ratioP1;P2;durP2;ratioP2
65377;SDS011;51982;51.042;13.806;2023-12-04T00:01:35;19.38;;;9.13;;
65377;SDS011;51982;51.042;13.806;2023-12-04T00:04:01;18.50;;;9.18;;
65377;SDS011;51982;51.042;13.806;2023-12-04T00:06:26;15.80;;;8.52;;
65377;SDS011;51982;51.042;13.806;2023-12-04T00:08:51;18.45;;;8.95;;
65377;SDS011;51982;51.042;13.806;2023-12-04T00:11:17;20.23;;;9.15;;
65377;SDS011;51982;51.042;13.806;2023-12-04T00:13:42;20.15;;;9.63;;
65377;SDS011;51982;51.042;13.806;2023-12-04T00:16:08;19.85;;;9.07;;
65377;SDS011;51982;51.042;13.806;2023-12-04T00:18:33;18.63;;;8.70;;
65377;SDS011;51982;51.042;13.806;2023-12-04T00:20:59;19.17;;;9.38;;
65377;SDS011;51982;51.042;13.806;2023-12-04T00:23:24;17.75;;;9.02;;
65377;SDS011;51982;51.042;13.806;2023-12-04T00:25:49;24.13;;;8.75;;
65377;SDS011;51982;51.042;13.806;2023-12-04T00:28:14;16.08;;;8.13;;
65377;SDS011;51982;51.042;13.806;2023-12-04T00:30:40;17.77;;;8.00;;
65377;SDS011;51982;51.042;13.806;2023-12-04T00:33:05;15.40;;;7.85;;
65377;SDS011;51982;51.042;13.806;2023-12-04T00:35:30;17.70;;;8.68;;
65377;SDS011;51982;51.042;13.806;2023-12-04T00:37:55;17.05;;;8.27;;
65377;SDS011;51982;51.042;13.806;2023-12-04T00:40:21;16.00;;;8.07;;
65377;SDS011;51982;51.042;13.806;2023-12-04T00:42:46;15.10;;;7.30;;
65377;SDS011;51982;51.042;13.806;2023-12-04T00:45:11;13.68;;;7.30;;
65377;SDS011;51982;51.042;13.806;2023-12-04T00:47:36;16.40;;;8.13;;
65377;SDS011;51982;51.042;13.806;2023-12-04T00:50:02;15.80;;;7.38;;
65377;SDS011;51982;51.042;13.806;2023-12-04T00:52:27;15.55;;;7.55;;
65377;SDS011;51982;51.042;13.806;2023-12-04T00:54:52;16.88;;;7.45;;
65377;SDS011;51982;51.042;13.806;2023-12-04T00:57:18;12.50;;;6.60;;
65377;SDS011;51982;51.042;13.806;2023-12-04T00:59:43;14.93;;;7.70;;
65377;SDS011;51982;51.042;13.806;2023-12-04T01:02:09;12.73;;;6.45;;
65377;SDS011;51982;51.042;13.806;2023-12-04T01:04:34;13.65;;;6.82;;
65377;SDS011;51982;51.042;13.806;2023-12-04T01:06:59;11.55;;;6.40;;
65377;SDS011;51982;51.042;13.806;2023-12-04T01:09:25;12.02;;;6.03;;
65377;SDS011;51982;51.042;13.806;2023-12-04T01:11:53;12.95;;;5.80;;
65377;SDS011;51982;51.042;13.806;2023-12-04T01:14:22;11.50;;;5.78;;
65377;SDS011;51982;51.042;13.806;2023-12-04T01:16:54;12.30;;;5.72;;
65377;SDS011;51982;51.042;13.806;2023-12-04T01:19:19;12.43;;;5.60;;
65377;SDS011;51982;51.042;13.806;2023-12-04T01:21:45;13.18;;;6.05;;
65377;SDS011;51982;51.042;13.806;2023-12-04T01:24:10;11.35;;;5.60;;
65377;SDS011;51982;51.042;13.806;2023-12-04T01:26:35;10.85;;;5.43;;
65377;SDS011;51982;51.042;13.806;2023-12-04T01:29:01;10.20;;;5.55;;
65377;SDS011;51982;51.042;13.806;2023-12-04T01:31:26;13.15;;;6.18;;
65377;SDS011;51982;51.042;13.806;2023-12-04T01:33:51;9.63;;;5.68;;
65377;SDS011;51982;51.042;13.806;2023-12-04T01:36:17;11.93;;;5.60;;
65377;SDS011;51982;51.042;13.806;2023-12-04T01:38:42;11.70;;;5.93;;
65377;SDS011;51982;51.042;13.806;2023-12-04T01:41:07;12.05;;;5.85;;
65377;SDS011;51982;51.042;13.806;2023-12-04T01:43:32;11.68;;;6.25;;
65377;SDS011;51982;51.042;13.806;2023-12-04T01:45:58;14.45;;;5.97;;
65377;SDS011;51982;51.042;13.806;2023-12-04T01:48:25;11.50;;;5.57;;
65377;SDS011;51982;51.042;13.806;2023-12-04T01:50:51;11.43;;;6.07;;
65377;SDS011;51982;51.042;13.806;2023-12-04T01:53:17;10.88;;;5.45;;
65377;SDS011;51982;51.042;13.806;2023-12-04T01:55:42;14.70;;;6.40;;
65377;SDS011;51982;51.042;13.806;2023-12-04T01:58:07;12.85;;;5.85;;
65377;SDS011;51982;51.042;13.806;2023-12-04T02:00:33;13.73;;;6.13;;
65377;SDS011;51982;51.042;13.806;2023-12-04T02:02:59;10.23;;;5.78;;
65377;SDS011;51982;51.042;13.806;2023-12-04T02:05:25;10.15;;;5.75;;
65377;SDS011;51982;51.042;13.806;2023-12-04T02:07:51;11.75;;;6.35;;
65377;SDS011;51982;51.042;13.806;2023-12-04T02:10:17;12.15;;;5.70;;
65377;SDS011;51982;51.042;13.806;2023-12-04T02:12:43;10.88;;;5.57;;
65377;SDS011;51982;51.042;13.806;2023-12-04T02:15:08;11.10;;;6.15;;
65377;SDS011;51982;51.042;13.806;2023-12-04T02:17:34;10.70;;;5.65;;
65377;SDS011;51982;51.042;13.806;2023-12-04T02:19:59;10.68;;;5.47;;
65377;SDS011;51982;51.042;13.806;2023-12-04T02:22:24;10.45;;;6.13;;
65377;SDS011;51982;51.042;13.806;2023-12-04T02:24:50;11.93;;;6.32;;
65377;SDS011;51982;51.042;13.806;2023-12-04T02:27:16;12.98;;;6.10;;
65377;SDS011;51982;51.042;13.806;2023-12-04T02:29:46;11.88;;;6.13;;
65377;SDS011;51982;51.042;13.806;2023-12-04T02:32:17;12.27;;;6.47;;
65377;SDS011;51982;51.042;13.806;2023-12-04T02:34:44;14.20;;;7.22;;
65377;SDS011;51982;51.042;13.806;2023-12-04T02:37:12;12.25;;;6.15;;
65377;SDS011;51982;51.042;13.806;2023-12-04T02:39:38;13.05;;;7.00;;
65377;SDS011;51982;51.042;13.806;2023-12-04T02:42:04;13.25;;;6.85;;
65377;SDS011;51982;51.042;13.806;2023-12-04T02:44:29;13.38;;;6.25;;
65377;SDS011;51982;51.042;13.806;2023-12-04T02:46:54;12.85;;;6.75;;
65377;SDS011;51982;51.042;13.806;2023-12-04T02:49:20;13.95;;;6.60;;
65377;SDS011;51982;51.042;13.806;2023-12-04T02:51:45;14.50;;;7.00;;
65377;SDS011;51982;51.042;13.806;2023-12-04T02:54:10;15.10;;;6.80;;
65377;SDS011;51982;51.042;13.806;2023-12-04T02:56:36;12.13;;;6.65;;
65377;SDS011;51982;51.042;13.806;2023-12-04T02:59:01;13.05;;;6.88;;
65377;SDS011;51982;51.042;13.806;2023-12-04T03:01:26;13.80;;;7.03;;
65377;SDS011;51982;51.042;13.806;2023-12-04T03:03:52;13.38;;;6.65;;
65377;SDS011;51982;51.042;13.806;2023-12-04T03:06:17;15.93;;;6.90;;
65377;SDS011;51982;51.042;13.806;2023-12-04T03:08:42;15.30;;;7.53;;
65377;SDS011;51982;51.042;13.806;2023-12-04T03:11:07;12.75;;;6.43;;
65377;SDS011;51982;51.042;13.806;2023-12-04T03:13:33;19.80;;;7.55;;
65377;SDS011;51982;51.042;13.806;2023-12-04T03:15:59;13.50;;;6.85;;
65377;SDS011;51982;51.042;13.806;2023-12-04T03:18:24;16.15;;;7.07;;
65377;SDS011;51982;51.042;13.806;2023-12-04T03:20:50;14.60;;;7.40;;
65377;SDS011;51982;51.042;13.806;2023-12-04T03:23:16;15.13;;;7.65;;
65377;SDS011;51982;51.042;13.806;2023-12-04T03:25:41;16.42;;;7.38;;
65377;SDS011;51982;51.042;13.806;2023-12-04T03:28:06;15.80;;;7.22;;
65377;SDS011;51982;51.042;13.806;2023-12-04T03:30:31;18.70;;;7.93;;
65377;SDS011;51982;51.042;13.806;2023-12-04T03:32:56;14.55;;;7.57;;
65377;SDS011;51982;51.042;13.806;2023-12-04T03:35:22;16.15;;;7.57;;
65377;SDS011;51982;51.042;13.806;2023-12-04T03:37:47;16.48;;;7.45;;
65377;SDS011;51982;51.042;13.806;2023-12-04T03:40:14;17.75;;;7.53;;
65377;SDS011;51982;51.042;13.806;2023-12-04T03:42:39;15.32;;;7.43;;
65377;SDS011;51982;51.042;13.806;2023-12-04T03:45:06;14.23;;;7.05;;
65377;SDS011;51982;51.042;13.806;2023-12-04T03:47:31;18.98;;;7.78;;
65377;SDS011;51982;51.042;13.806;2023-12-04T03:49:56;15.75;;;7.65;;
65377;SDS011;51982;51.042;13.806;2023-12-04T03:52:22;17.73;;;7.93;;
65377;SDS011;51982;51.042;13.806;2023-12-04T03:54:47;15.38;;;7.63;;
65377;SDS011;51982;51.042;13.806;2023-12-04T03:57:12;17.20;;;6.28;;
65377;SDS011;51982;51.042;13.806;2023-12-04T03:59:37;16.70;;;7.20;;
65377;SDS011;51982;51.042;13.806;2023-12-04T04:02:03;16.17;;;7.25;;
65377;SDS011;51982;51.042;13.806;2023-12-04T04:04:28;14.82;;;7.15;;
65377;SDS011;51982;51.042;13.806;2023-12-04T04:06:53;13.65;;;6.65;;
65377;SDS011;51982;51.042;13.806;2023-12-04T04:09:18;16.65;;;7.25;;
65377;SDS011;51982;51.042;13.806;2023-12-04T04:11:45;14.77;;;7.30;;
65377;SDS011;51982;51.042;13.806;2023-12-04T04:14:10;17.10;;;7.82;;
65377;SDS011;51982;51.042;13.806;2023-12-04T04:16:35;13.60;;;6.60;;
65377;SDS011;51982;51.042;13.806;2023-12-04T04:19:00;18.50;;;6.95;;
65377;SDS011;51982;51.042;13.806;2023-12-04T04:21:26;15.70;;;6.75;;
65377;SDS011;51982;51.042;13.806;2023-12-04T04:23:51;14.00;;;5.82;;
65377;SDS011;51982;51.042;13.806;2023-12-04T04:26:18;12.82;;;5.95;;
65377;SDS011;51982;51.042;13.806;2023-12-04T04:28:43;13.30;;;5.95;;
65377;SDS011;51982;51.042;13.806;2023-12-04T04:31:08;10.05;;;5.60;;
65377;SDS011;51982;51.042;13.806;2023-12-04T04:33:34;10.40;;;5.60;;
65377;SDS011;51982;51.042;13.806;2023-12-04T04:35:59;11.05;;;5.35;;
65377;SDS011;51982;51.042;13.806;2023-12-04T04:38:24;8.43;;;4.20;;
65377;SDS011;51982;51.042;13.806;2023-12-04T04:40:49;10.35;;;5.53;;
65377;SDS011;51982;51.042;13.806;2023-12-04T04:43:15;11.82;;;4.05;;
65377;SDS011;51982;51.042;13.806;2023-12-04T04:45:40;11.43;;;5.22;;
65377;SDS011;51982;51.042;13.806;2023-12-04T04:48:05;10.43;;;4.88;;
65377;SDS011;51982;51.042;13.806;2023-12-04T04:50:30;13.73;;;5.50;;
65377;SDS011;51982;51.042;13.806;2023-12-04T04:52:56;12.77;;;5.53;;
65377;SDS011;51982;51.042;13.806;2023-12-04T04:55:21;11.52;;;5.50;;
65377;SDS011;51982;51.042;13.806;2023-12-04T04:57:46;10.45;;;5.05;;
65377;SDS011;51982;51.042;13.806;2023-12-04T05:00:11;9.82;;;5.13;;
65377;SDS011;51982;51.042;13.806;2023-12-04T05:02:37;9.63;;;4.90;;
65377;SDS011;51982;51.042;13.806;2023-12-04T05:05:02;10.45;;;5.32;;
65377;SDS011;51982;51.042;13.806;2023-12-04T05:07:29;11.23;;;5.55;;
65377;SDS011;51982;51.042;13.806;2023-12-04T05:09:54;4.80;;;2.67;;
65377;SDS011;51982;51.042;13.806;2023-12-04T05:12:19;11.05;;;5.75;;
65377;SDS011;51982;51.042;13.806;2023-12-04T05:14:44;11.80;;;5.20;;
65377;SDS011;51982;51.042;13.806;2023-12-04T05:17:09;8.98;;;4.82;;
65377;SDS011;51982;51.042;13.806;2023-12-04T05:19:35;8.40;;;4.68;;
65377;SDS011;51982;51.042;13.806;2023-12-04T05:22:00;9.68;;;4.65;;
65377;SDS011;51982;51.042;13.806;2023-12-04T05:24:25;9.88;;;4.88;;
65377;SDS011;51982;51.042;13.806;2023-12-04T05:26:50;4.25;;;2.30;;
65377;SDS011;51982;51.042;13.806;2023-12-04T05:29:16;10.77;;;5.15;;
65377;SDS011;51982;51.042;13.806;2023-12-04T05:31:41;9.68;;;4.72;;
65377;SDS011;51982;51.042;13.806;2023-12-04T05:34:06;10.60;;;4.90;;
65377;SDS011;51982;51.042;13.806;2023-12-04T05:36:34;11.80;;;5.22;;
65377;SDS011;51982;51.042;13.806;2023-12-04T05:38:59;6.35;;;3.53;;
65377;SDS011;51982;51.042;13.806;2023-12-04T05:41:24;10.30;;;4.57;;
65377;SDS011;51982;51.042;13.806;2023-12-04T05:43:49;6.80;;;3.47;;
65377;SDS011;51982;51.042;13.806;2023-12-04T05:46:14;3.90;;;2.38;;
65377;SDS011;51982;51.042;13.806;2023-12-04T05:48:40;7.63;;;3.92;;
65377;SDS011;51982;51.042;13.806;2023-12-04T05:51:05;6.65;;;2.78;;
65377;SDS011;51982;51.042;13.806;2023-12-04T05:53:30;12.88;;;4.57;;
65377;SDS011;51982;51.042;13.806;2023-12-04T05:55:55;9.60;;;4.60;;
65377;SDS011;51982;51.042;13.806;2023-12-04T05:58:21;12.13;;;5.63;;
65377;SDS011;51982;51.042;13.806;2023-12-04T06:00:46;11.25;;;5.35;;
65377;SDS011;51982;51.042;13.806;2023-12-04T06:03:11;6.57;;;3.28;;
65377;SDS011;51982;51.042;13.806;2023-12-04T06:05:36;10.77;;;5.03;;
65377;SDS011;51982;51.042;13.806;2023-12-04T06:08:02;9.77;;;5.22;;
65377;SDS011;51982;51.042;13.806;2023-12-04T06:10:27;6.38;;;3.47;;
65377;SDS011;51982;51.042;13.806;2023-12-04T06:12:52;6.05;;;2.92;;
65377;SDS011;51982;51.042;13.806;2023-12-04T06:15:17;4.85;;;2.05;;
65377;SDS011;51982;51.042;13.806;2023-12-04T06:17:43;8.82;;;3.90;;
65377;SDS011;51982;51.042;13.806;2023-12-04T06:20:08;11.70;;;4.78;;
65377;SDS011;51982;51.042;13.806;2023-12-04T06:22:36;8.68;;;4.00;;
65377;SDS011;51982;51.042;13.806;2023-12-04T06:25:01;11.45;;;5.30;;
65377;SDS011;51982;51.042;13.806;2023-12-04T06:27:27;3.55;;;1.67;;
65377;SDS011;51982;51.042;13.806;2023-12-04T06:29:52;3.13;;;2.08;;
65377;SDS011;51982;51.042;13.806;2023-12-04T06:32:18;10.70;;;4.68;;
65377;SDS011;51982;51.042;13.806;2023-12-04T06:34:44;4.03;;;2.20;;
65377;SDS011;51982;51.042;13.806;2023-12-04T06:37:10;6.82;;;3.67;;
65377;SDS011;51982;51.042;13.806;2023-12-04T06:39:37;10.90;;;5.07;;
65377;SDS011;51982;51.042;13.806;2023-12-04T06:42:05;3.80;;;2.03;;
65377;SDS011;51982;51.042;13.806;2023-12-04T06:44:31;4.88;;;3.00;;
65377;SDS011;51982;51.042;13.806;2023-12-04T06:46:57;9.50;;;4.45;;
65377;SDS011;51982;51.042;13.806;2023-12-04T06:49:30;8.25;;;4.57;;
65377;SDS011;51982;51.042;13.806;2023-12-04T06:51:57;5.18;;;2.55;;
65377;SDS011;51982;51.042;13.806;2023-12-04T06:54:22;2.30;;;1.35;;
65377;SDS011;51982;51.042;13.806;2023-12-04T06:56:47;7.43;;;3.70;;
65377;SDS011;51982;51.042;13.806;2023-12-04T06:59:12;11.02;;;5.13;;
65377;SDS011;51982;51.042;13.806;2023-12-04T07:01:38;7.28;;;3.90;;
65377;SDS011;51982;51.042;13.806;2023-12-04T07:04:03;7.80;;;4.03;;
65377;SDS011;51982;51.042;13.806;2023-12-04T07:06:34;9.25;;;4.30;;
65377;SDS011;51982;51.042;13.806;2023-12-04T07:09:00;8.15;;;4.03;;
65377;SDS011;51982;51.042;13.806;2023-12-04T07:11:26;3.10;;;2.03;;
65377;SDS011;51982;51.042;13.806;2023-12-04T07:13:51;8.05;;;3.78;;
65377;SDS011;51982;51.042;13.806;2023-12-04T07:16:16;3.47;;;2.30;;
65377;SDS011;51982;51.042;13.806;2023-12-04T07:18:42;6.28;;;3.30;;
65377;SDS011;51982;51.042;13.806;2023-12-04T07:21:07;3.55;;;2.38;;
65377;SDS011;51982;51.042;13.806;2023-12-04T07:23:33;7.78;;;3.95;;
65377;SDS011;51982;51.042;13.806;2023-12-04T07:25:58;4.50;;;2.85;;
65377;SDS011;51982;51.042;13.806;2023-12-04T07:28:23;8.10;;;2.88;;
65377;SDS011;51982;51.042;13.806;2023-12-04T07:30:49;8.75;;;4.07;;
65377;SDS011;51982;51.042;13.806;2023-12-04T07:33:14;9.70;;;4.20;;
65377;SDS011;51982;51.042;13.806;2023-12-04T07:35:39;5.93;;;3.80;;
65377;SDS011;51982;51.042;13.806;2023-12-04T07:38:04;6.82;;;3.13;;
65377;SDS011;51982;51.042;13.806;2023-12-04T07:40:30;9.65;;;4.95;;
65377;SDS011;51982;51.042;13.806;2023-12-04T07:42:55;8.73;;;4.25;;
65377;SDS011;51982;51.042;13.806;2023-12-04T07:45:20;4.93;;;2.97;;
65377;SDS011;51982;51.042;13.806;2023-12-04T07:47:46;6.80;;;3.38;;
65377;SDS011;51982;51.042;13.806;2023-12-04T07:50:11;8.55;;;3.80;;
65377;SDS011;51982;51.042;13.806;2023-12-04T07:52:36;7.90;;;4.00;;
65377;SDS011;51982;51.042;13.806;2023-12-04T07:55:02;10.63;;;4.22;;
65377;SDS011;51982;51.042;13.806;2023-12-04T07:57:27;6.50;;;3.95;;
65377;SDS011;51982;51.042;13.806;2023-12-04T07:59:52;9.13;;;4.07;;
65377;SDS011;51982;51.042;13.806;2023-12-04T08:02:19;4.75;;;2.63;;
65377;SDS011;51982;51.042;13.806;2023-12-04T08:04:44;2.38;;;1.63;;
65377;SDS011;51982;51.042;13.806;2023-12-04T08:07:09;9.20;;;4.80;;
65377;SDS011;51982;51.042;13.806;2023-12-04T08:09:35;6.75;;;3.78;;
65377;SDS011;51982;51.042;13.806;2023-12-04T08:12:00;5.97;;;3.63;;
65377;SDS011;51982;51.042;13.806;2023-12-04T08:14:25;3.63;;;2.42;;
65377;SDS011;51982;51.042;13.806;2023-12-04T08:16:53;6.30;;;3.33;;
65377;SDS011;51982;51.042;13.806;2023-12-04T08:19:18;7.72;;;3.75;;
65377;SDS011;51982;51.042;13.806;2023-12-04T08:21:43;7.53;;;3.55;;
65377;SDS011;51982;51.042;13.806;2023-12-04T08:24:08;7.38;;;3.42;;
65377;SDS011;51982;51.042;13.806;2023-12-04T08:26:33;5.60;;;2.85;;
65377;SDS011;51982;51.042;13.806;2023-12-04T08:28:59;9.02;;;4.32;;
65377;SDS011;51982;51.042;13.806;2023-12-04T08:31:24;3.25;;;2.05;;
65377;SDS011;51982;51.042;13.806;2023-12-04T08:33:49;4.40;;;2.65;;
65377;SDS011;51982;51.042;13.806;2023-12-04T08:36:14;4.50;;;2.17;;
65377;SDS011;51982;51.042;13.806;2023-12-04T08:38:40;7.13;;;3.03;;
65377;SDS011;51982;51.042;13.806;2023-12-04T08:41:05;7.43;;;4.22;;
65377;SDS011;51982;51.042;13.806;2023-12-04T08:43:31;3.03;;;1.90;;
65377;SDS011;51982;51.042;13.806;2023-12-04T08:45:56;4.68;;;3.05;;
65377;SDS011;51982;51.042;13.806;2023-12-04T08:48:21;7.25;;;4.18;;
65377;SDS011;51982;51.042;13.806;2023-12-04T08:50:47;3.42;;;2.55;;
65377;SDS011;51982;51.042;13.806;2023-12-04T08:53:12;6.15;;;3.40;;
65377;SDS011;51982;51.042;13.806;2023-12-04T08:55:38;6.43;;;3.22;;
65377;SDS011;51982;51.042;13.806;2023-12-04T08:58:03;10.35;;;3.80;;
65377;SDS011;51982;51.042;13.806;2023-12-04T09:00:29;7.43;;;4.03;;
65377;SDS011;51982;51.042;13.806;2023-12-04T09:02:54;5.32;;;3.50;;
65377;SDS011;51982;51.042;13.806;2023-12-04T09:05:19;5.82;;;2.95;;
65377;SDS011;51982;51.042;13.806;2023-12-04T09:07:44;8.35;;;4.38;;
65377;SDS011;51982;51.042;13.806;2023-12-04T09:10:10;7.68;;;3.70;;
65377;SDS011;51982;51.042;13.806;2023-12-04T09:12:35;5.88;;;3.22;;
65377;SDS011;51982;51.042;13.806;2023-12-04T09:15:01;3.53;;;2.58;;
65377;SDS011;51982;51.042;13.806;2023-12-04T09:17:27;7.80;;;4.30;;
65377;SDS011;51982;51.042;13.806;2023-12-04T09:19:53;6.88;;;3.10;;
65377;SDS011;51982;51.042;13.806;2023-12-04T09:22:18;9.40;;;4.35;;
65377;SDS011;51982;51.042;13.806;2023-12-04T09:24:44;8.35;;;4.03;;
65377;SDS011;51982;51.042;13.806;2023-12-04T09:27:09;3.95;;;2.03;;
65377;SDS011;51982;51.042;13.806;2023-12-04T09:29:34;3.50;;;2.33;;
65377;SDS011;51982;51.042;13.806;2023-12-04T09:31:59;8.90;;;4.60;;
65377;SDS011;51982;51.042;13.806;2023-12-04T09:34:25;7.53;;;4.10;;
65377;SDS011;51982;51.042;13.806;2023-12-04T09:36:50;8.05;;;4.35;;
65377;SDS011;51982;51.042;13.806;2023-12-04T09:39:15;6.95;;;3.15;;
65377;SDS011;51982;51.042;13.806;2023-12-04T09:41:41;9.82;;;4.22;;
65377;SDS011;51982;51.042;13.806;2023-12-04T09:44:07;3.17;;;2.00;;
65377;SDS011;51982;51.042;13.806;2023-12-04T09:46:33;8.60;;;3.10;;
65377;SDS011;51982;51.042;13.806;2023-12-04T09:48:59;3.20;;;2.17;;
65377;SDS011;51982;51.042;13.806;2023-12-04T09:51:25;3.90;;;2.35;;
65377;SDS011;51982;51.042;13.806;2023-12-04T09:53:52;10.80;;;5.25;;
65377;SDS011;51982;51.042;13.806;2023-12-04T09:56:18;8.25;;;4.47;;
65377;SDS011;51982;51.042;13.806;2023-12-04T09:58:45;7.90;;;4.40;;
65377;SDS011;51982;51.042;13.806;2023-12-04T10:01:11;4.97;;;2.50;;
65377;SDS011;51982;51.042;13.806;2023-12-04T10:03:36;8.50;;;4.40;;
65377;SDS011;51982;51.042;13.806;2023-12-04T10:06:03;6.25;;;3.80;;
65377;SDS011;51982;51.042;13.806;2023-12-04T10:08:29;6.35;;;3.28;;
65377;SDS011;51982;51.042;13.806;2023-12-04T10:10:55;10.50;;;4.65;;
65377;SDS011;51982;51.042;13.806;2023-12-04T10:13:20;7.55;;;4.18;;
65377;SDS011;51982;51.042;13.806;2023-12-04T10:15:48;4.72;;;2.63;;
65377;SDS011;51982;51.042;13.806;2023-12-04T10:18:25;4.47;;;2.45;;
65377;SDS011;51982;51.042;13.806;2023-12-04T10:20:51;8.00;;;3.60;;
65377;SDS011;51982;51.042;13.806;2023-12-04T10:23:20;9.02;;;4.32;;
65377;SDS011;51982;51.042;13.806;2023-12-04T10:25:45;10.32;;;4.38;;
65377;SDS011;51982;51.042;13.806;2023-12-04T10:28:15;10.00;;;4.38;;
65377;SDS011;51982;51.042;13.806;2023-12-04T10:30:41;7.28;;;3.90;;
65377;SDS011;51982;51.042;13.806;2023-12-04T10:33:07;10.48;;;4.68;;
65377;SDS011;51982;51.042;13.806;2023-12-04T10:35:33;7.60;;;4.22;;
65377;SDS011;51982;51.042;13.806;2023-12-04T10:38:03;10.77;;;4.90;;
65377;SDS011;51982;51.042;13.806;2023-12-04T10:40:30;4.43;;;2.13;;
65377;SDS011;51982;51.042;13.806;2023-12-04T10:43:15;10.82;;;5.13;;
65377;SDS011;51982;51.042;13.806;2023-12-04T10:45:45;8.65;;;3.92;;
65377;SDS011;51982;51.042;13.806;2023-12-04T10:48:11;10.25;;;5.30;;
65377;SDS011;51982;51.042;13.806;2023-12-04T10:50:38;10.15;;;4.97;;
65377;SDS011;51982;51.042;13.806;2023-12-04T10:53:08;5.78;;;3.22;;
65377;SDS011;51982;51.042;13.806;2023-12-04T10:55:37;3.90;;;2.17;;
65377;SDS011;51982;51.042;13.806;2023-12-04T10:58:07;5.88;;;2.92;;
65377;SDS011;51982;51.042;13.806;2023-12-04T11:00:34;9.60;;;3.88;;
65377;SDS011;51982;51.042;13.806;2023-12-04T11:03:09;5.97;;;2.83;;
65377;SDS011;51982;51.042;13.806;2023-12-04T11:05:38;12.77;;;5.15;;
65377;SDS011;51982;51.042;13.806;2023-12-04T11:08:05;11.30;;;5.55;;
65377;SDS011;51982;51.042;13.806;2023-12-04T11:10:32;10.63;;;5.30;;
65377;SDS011;51982;51.042;13.806;2023-12-04T11:13:00;8.52;;;4.35;;
65377;SDS011;51982;51.042;13.806;2023-12-04T11:15:30;6.03;;;3.63;;
65377;SDS011;51982;51.042;13.806;2023-12-04T11:18:00;12.80;;;4.63;;
65377;SDS011;51982;51.042;13.806;2023-12-04T11:20:29;10.60;;;4.82;;
65377;SDS011;51982;51.042;13.806;2023-12-04T11:22:58;8.30;;;4.43;;
65377;SDS011;51982;51.042;13.806;2023-12-04T11:25:24;12.27;;;4.82;;
65377;SDS011;51982;51.042;13.806;2023-12-04T11:27:53;8.13;;;3.90;;
65377;SDS011;51982;51.042;13.806;2023-12-04T11:30:20;10.23;;;4.68;;
65377;SDS011;51982;51.042;13.806;2023-12-04T11:32:46;10.13;;;5.07;;
65377;SDS011;51982;51.042;13.806;2023-12-04T11:35:14;5.50;;;3.30;;
65377;SDS011;51982;51.042;13.806;2023-12-04T11:37:42;10.55;;;5.20;;
65377;SDS011;51982;51.042;13.806;2023-12-04T11:40:10;8.18;;;3.25;;
65377;SDS011;51982;51.042;13.806;2023-12-04T11:42:36;6.45;;;3.42;;
65377;SDS011;51982;51.042;13.806;2023-12-04T11:45:04;6.97;;;3.72;;
65377;SDS011;51982;51.042;13.806;2023-12-04T11:47:30;9.38;;;3.80;;
65377;SDS011;51982;51.042;13.806;2023-12-04T11:49:57;11.45;;;5.63;;
65377;SDS011;51982;51.042;13.806;2023-12-04T11:52:32;11.32;;;5.35;;
65377;SDS011;51982;51.042;13.806;2023-12-04T11:55:00;10.35;;;5.15;;
65377;SDS011;51982;51.042;13.806;2023-12-04T11:57:33;5.05;;;3.28;;
65377;SDS011;51982;51.042;13.806;2023-12-04T12:00:10;8.23;;;4.28;;
65377;SDS011;51982;51.042;13.806;2023-12-04T12:02:40;7.10;;;3.97;;
65377;SDS011;51982;51.042;13.806;2023-12-04T12:05:06;8.25;;;4.35;;
65377;SDS011;51982;51.042;13.806;2023-12-04T12:07:32;8.63;;;4.38;;
65377;SDS011;51982;51.042;13.806;2023-12-04T12:09:58;6.03;;;2.83;;
65377;SDS011;51982;51.042;13.806;2023-12-04T12:12:24;6.35;;;3.05;;
65377;SDS011;51982;51.042;13.806;2023-12-04T12:14:51;7.78;;;3.70;;
65377;SDS011;51982;51.042;13.806;2023-12-04T12:17:16;12.15;;;5.22;;
65377;SDS011;51982;51.042;13.806;2023-12-04T12:19:42;11.05;;;4.75;;
65377;SDS011;51982;51.042;13.806;2023-12-04T12:22:07;12.93;;;5.38;;
65377;SDS011;51982;51.042;13.806;2023-12-04T12:24:32;9.60;;;4.82;;
65377;SDS011;51982;51.042;13.806;2023-12-04T12:26:58;14.63;;;4.03;;
65377;SDS011;51982;51.042;13.806;2023-12-04T12:29:23;13.38;;;5.03;;
65377;SDS011;51982;51.042;13.806;2023-12-04T12:31:49;11.35;;;3.78;;
65377;SDS011;51982;51.042;13.806;2023-12-04T12:34:14;11.05;;;4.82;;
65377;SDS011;51982;51.042;13.806;2023-12-04T12:36:40;11.02;;;4.82;;
65377;SDS011;51982;51.042;13.806;2023-12-04T12:39:05;7.80;;;3.67;;
65377;SDS011;51982;51.042;13.806;2023-12-04T12:41:33;9.43;;;4.05;;
65377;SDS011;51982;51.042;13.806;2023-12-04T12:43:58;7.10;;;3.90;;
65377;SDS011;51982;51.042;13.806;2023-12-04T12:46:25;11.52;;;5.35;;
65377;SDS011;51982;51.042;13.806;2023-12-04T12:48:51;2.20;;;1.60;;
65377;SDS011;51982;51.042;13.806;2023-12-04T12:51:17;12.90;;;4.90;;
65377;SDS011;51982;51.042;13.806;2023-12-04T12:53:43;10.75;;;4.57;;
65377;SDS011;51982;51.042;13.806;2023-12-04T12:56:09;13.15;;;5.50;;
65377;SDS011;51982;51.042;13.806;2023-12-04T12:58:34;12.23;;;5.35;;
65377;SDS011;51982;51.042;13.806;2023-12-04T13:01:00;7.75;;;4.32;;
65377;SDS011;51982;51.042;13.806;2023-12-04T13:03:26;9.60;;;5.10;;
65377;SDS011;51982;51.042;13.806;2023-12-04T13:05:52;6.50;;;3.13;;
65377;SDS011;51982;51.042;13.806;2023-12-04T13:08:18;4.90;;;2.85;;
65377;SDS011;51982;51.042;13.806;2023-12-04T13:10:43;8.05;;;3.92;;
65377;SDS011;51982;51.042;13.806;2023-12-04T13:13:14;3.70;;;2.28;;
65377;SDS011;51982;51.042;13.806;2023-12-04T13:15:40;11.15;;;4.88;;
65377;SDS011;51982;51.042;13.806;2023-12-04T13:18:06;9.70;;;5.85;;
65377;SDS011;51982;51.042;13.806;2023-12-04T13:20:31;8.45;;;3.75;;
65377;SDS011;51982;51.042;13.806;2023-12-04T13:22:57;12.15;;;5.47;;
65377;SDS011;51982;51.042;13.806;2023-12-04T13:25:22;9.90;;;5.22;;
65377;SDS011;51982;51.042;13.806;2023-12-04T13:27:47;16.85;;;6.00;;
65377;SDS011;51982;51.042;13.806;2023-12-04T13:30:13;8.70;;;4.38;;
65377;SDS011;51982;51.042;13.806;2023-12-04T13:32:38;8.07;;;4.43;;
65377;SDS011;51982;51.042;13.806;2023-12-04T13:35:04;8.93;;;4.72;;
65377;SDS011;51982;51.042;13.806;2023-12-04T13:37:33;9.00;;;4.25;;
65377;SDS011;51982;51.042;13.806;2023-12-04T13:40:00;10.63;;;5.20;;
65377;SDS011;51982;51.042;13.806;2023-12-04T13:42:31;11.00;;;5.35;;
65377;SDS011;51982;51.042;13.806;2023-12-04T13:45:18;11.73;;;4.68;;
65377;SDS011;51982;51.042;13.806;2023-12-04T13:47:47;5.15;;;2.15;;
65377;SDS011;51982;51.042;13.806;2023-12-04T13:50:13;8.95;;;4.55;;
65377;SDS011;51982;51.042;13.806;2023-12-04T13:52:38;9.65;;;4.43;;
65377;SDS011;51982;51.042;13.806;2023-12-04T13:55:04;7.40;;;3.97;;
65377;SDS011;51982;51.042;13.806;2023-12-04T13:57:39;10.95;;;5.22;;
65377;SDS011;51982;51.042;13.806;2023-12-04T14:00:19;9.55;;;4.70;;
65377;SDS011;51982;51.042;13.806;2023-12-04T14:02:45;7.15;;;3.80;;
65377;SDS011;51982;51.042;13.806;2023-12-04T14:05:10;10.13;;;4.53;;
65377;SDS011;51982;51.042;13.806;2023-12-04T14:07:40;6.35;;;2.95;;
65377;SDS011;51982;51.042;13.806;2023-12-04T14:10:18;8.25;;;4.57;;
65377;SDS011;51982;51.042;13.806;2023-12-04T14:12:43;12.25;;;5.72;;
65377;SDS011;51982;51.042;13.806;2023-12-04T14:15:09;8.30;;;4.43;;
65377;SDS011;51982;51.042;13.806;2023-12-04T14:17:34;9.77;;;2.50;;
65377;SDS011;51982;51.042;13.806;2023-12-04T14:20:00;12.45;;;5.72;;
65377;SDS011;51982;51.042;13.806;2023-12-04T14:22:25;11.50;;;5.43;;